createdAt,value
2023-05-20T00:01:44.806Z,88.93
2023-05-20T00:04:12.213Z,89.04
2023-05-20T00:06:39.610Z,88.92
2023-05-20T00:09:06.753Z,88.79
2023-05-20T00:11:33.800Z,88.56
2023-05-20T00:14:00.898Z,88.65
2023-05-20T00:16:28.258Z,88.97
2023-05-20T00:18:57.168Z,89.15
2023-05-20T00:21:24.554Z,89.23
2023-05-20T00:23:51.921Z,89.42
2023-05-20T00:26:19.575Z,89.58
2023-05-20T00:28:48.464Z,89.77
2023-05-20T00:31:16.023Z,89.81
2023-05-20T00:33:43.173Z,89.83
2023-05-20T00:36:10.117Z,90.03
2023-05-20T00:38:37.270Z,90.18
2023-05-20T00:41:04.523Z,90.22
2023-05-20T00:43:31.637Z,90.34
2023-05-20T00:45:58.758Z,90.38
2023-05-20T00:48:25.871Z,90.41
2023-05-20T00:50:52.924Z,90.45
2023-05-20T00:53:20.378Z,90.44
2023-05-20T00:55:47.452Z,90.32
2023-05-20T00:58:14.488Z,90.51
2023-05-20T01:00:41.609Z,90.59
2023-05-20T01:03:09.341Z,90.63
2023-05-20T01:05:38.689Z,90.52
2023-05-20T01:08:08.232Z,90.56
2023-05-20T01:10:38.863Z,90.56
2023-05-20T01:13:07.927Z,90.37
2023-05-20T01:15:35.255Z,89.97
2023-05-20T01:18:06.547Z,89.54
2023-05-20T01:20:33.713Z,89.14
2023-05-20T01:23:00.918Z,88.87
2023-05-20T01:25:28.073Z,88.61
2023-05-20T01:27:56.246Z,88.42
2023-05-20T01:30:24.335Z,88.21
2023-05-20T01:32:54.644Z,88.09
2023-05-20T01:35:23.212Z,88.18
2023-05-20T01:37:51.188Z,88.13
2023-05-20T01:40:18.584Z,88.12
2023-05-20T01:42:46.940Z,87.91
2023-05-20T01:45:14.340Z,87.86
2023-05-20T01:47:41.617Z,87.84
2023-05-20T01:50:09.381Z,87.81
2023-05-20T01:52:36.732Z,87.80
2023-05-20T01:55:04.141Z,87.61
2023-05-20T01:57:31.354Z,87.61
2023-05-20T01:59:58.743Z,87.95
2023-05-20T02:02:26.256Z,88.16
2023-05-20T02:04:55.084Z,88.06
2023-05-20T02:07:22.243Z,87.78
2023-05-20T02:09:49.392Z,87.53
2023-05-20T02:12:19.318Z,87.41
2023-05-20T02:14:47.587Z,87.40
2023-05-20T02:17:17.132Z,87.42
2023-05-20T02:19:45.387Z,87.18
2023-05-20T02:22:12.414Z,86.90
2023-05-20T02:24:39.659Z,86.88
2023-05-20T02:27:07.317Z,86.90
2023-05-20T02:29:34.320Z,86.64
2023-05-20T02:32:01.567Z,86.11
2023-05-20T02:34:30.491Z,85.52
2023-05-20T02:36:57.868Z,85.59
2023-05-20T02:39:25.367Z,85.60
2023-05-20T02:41:52.544Z,85.41
2023-05-20T02:44:19.739Z,85.21
2023-05-20T02:46:48.671Z,85.29
2023-05-20T02:49:15.806Z,85.49
2023-05-20T02:51:42.800Z,85.48
2023-05-20T02:54:09.937Z,85.44
2023-05-20T02:56:37.031Z,85.47
2023-05-20T02:59:05.088Z,85.84
2023-05-20T03:01:34.216Z,85.92
2023-05-20T03:04:02.961Z,85.91
2023-05-20T03:06:32.827Z,85.78
2023-05-20T03:08:59.941Z,85.41
2023-05-20T03:11:27.090Z,85.47
2023-05-20T03:13:54.142Z,85.49
2023-05-20T03:16:21.377Z,85.36
2023-05-20T03:18:48.669Z,85.19
2023-05-20T03:21:17.327Z,84.78
2023-05-20T03:23:44.385Z,84.86
2023-05-20T03:26:11.848Z,85.02
2023-05-20T03:28:39.745Z,84.97
2023-05-20T03:31:07.339Z,84.79
2023-05-20T03:33:35.846Z,84.50
2023-05-20T03:36:03.458Z,84.08
2023-05-20T03:38:30.912Z,84.00
2023-05-20T03:40:58.156Z,83.94
2023-05-20T03:43:25.940Z,83.73
2023-05-20T03:45:53.295Z,83.56
2023-05-20T03:48:20.805Z,83.63
2023-05-20T03:50:50.023Z,83.21
2023-05-20T03:53:17.893Z,83.07
2023-05-20T03:55:45.259Z,83.16
2023-05-20T03:58:14.033Z,83.24
2023-05-20T04:00:41.807Z,83.02
2023-05-20T04:03:09.234Z,82.99
2023-05-20T04:05:37.139Z,82.73
2023-05-20T04:08:06.540Z,82.58
2023-05-20T04:10:34.094Z,81.91
2023-05-20T04:13:01.277Z,81.82
2023-05-20T04:15:30.188Z,81.60
2023-05-20T04:17:58.299Z,81.67
2023-05-20T04:20:25.518Z,81.12
2023-05-20T04:22:55.540Z,80.88
2023-05-20T04:25:22.897Z,80.73
2023-05-20T04:27:50.655Z,80.70
2023-05-20T04:30:18.838Z,80.42
2023-05-20T04:32:46.023Z,79.49
2023-05-20T04:35:14.144Z,79.42
2023-05-20T04:37:45.003Z,79.37
2023-05-20T04:40:13.889Z,78.80
2023-05-20T04:42:41.351Z,78.83
2023-05-20T04:45:09.011Z,78.29
2023-05-20T04:47:39.438Z,77.80
2023-05-20T04:50:11.082Z,77.33
2023-05-20T04:52:42.190Z,77.29
2023-05-20T04:55:10.896Z,77.08
2023-05-20T04:57:42.599Z,76.57
2023-05-20T05:00:13.927Z,76.25
2023-05-20T05:02:41.893Z,75.94
2023-05-20T05:05:09.586Z,75.60
2023-05-20T05:07:36.922Z,75.18
2023-05-20T05:10:04.215Z,75.27
2023-05-20T05:12:32.175Z,75.14
2023-05-20T05:15:00.502Z,74.59
2023-05-20T05:17:29.328Z,73.51
2023-05-20T05:19:57.626Z,73.03
2023-05-20T05:22:24.997Z,72.46
2023-05-20T05:24:52.758Z,70.96
2023-05-20T05:27:19.909Z,70.44
2023-05-20T05:29:46.954Z,69.29
2023-05-20T05:32:14.239Z,67.89
2023-05-20T05:34:41.485Z,67.42
2023-05-20T05:37:08.835Z,67.33
2023-05-20T05:39:38.024Z,66.69
2023-05-20T05:42:05.779Z,65.87
2023-05-20T05:44:33.545Z,65.43
2023-05-20T05:47:00.949Z,64.59
2023-05-20T05:49:28.352Z,64.77
2023-05-20T05:51:55.719Z,64.62
2023-05-20T05:54:24.090Z,64.70
2023-05-20T05:58:17.463Z,63.88
2023-05-20T06:00:44.940Z,63.82
2023-05-20T06:03:12.727Z,62.98
2023-05-20T06:05:40.465Z,62.80
2023-05-20T06:08:07.816Z,62.18
2023-05-20T06:10:36.597Z,62.40
2023-05-20T06:13:03.513Z,62.52
2023-05-20T06:15:31.456Z,61.55
2023-05-20T06:17:58.585Z,60.84
2023-05-20T06:20:26.831Z,59.97
2023-05-20T06:22:53.979Z,60.16
2023-05-20T06:25:23.281Z,59.90
2023-05-20T06:27:51.158Z,59.54
2023-05-20T06:30:19.840Z,59.39
2023-05-20T06:32:47.511Z,59.04
2023-05-20T06:35:14.864Z,59.85
2023-05-20T06:37:42.014Z,60.01
2023-05-20T06:40:10.869Z,59.25
2023-05-20T06:42:38.022Z,59.07
2023-05-20T06:45:06.773Z,59.23
2023-05-20T06:47:42.138Z,58.20
2023-05-20T06:50:10.763Z,58.62
2023-05-20T06:52:38.013Z,57.66
2023-05-20T06:55:05.877Z,57.49
2023-05-20T06:57:34.373Z,56.11
2023-05-20T07:00:01.519Z,55.86
2023-05-20T07:02:29.532Z,56.03
2023-05-20T07:04:56.748Z,55.46
2023-05-20T07:07:23.796Z,54.80
2023-05-20T07:09:51.102Z,53.58
2023-05-20T07:12:18.148Z,53.63
2023-05-20T07:14:45.197Z,52.24
2023-05-20T07:17:13.241Z,51.56
2023-05-20T07:19:40.360Z,50.95
2023-05-20T07:22:07.340Z,51.31
2023-05-20T07:24:38.889Z,50.71
2023-05-20T07:27:06.075Z,50.11
2023-05-20T07:29:33.158Z,49.80
2023-05-20T07:32:00.454Z,50.04
2023-05-20T07:34:28.105Z,49.40
2023-05-20T07:36:55.633Z,49.35
2023-05-20T07:39:22.945Z,49.08
2023-05-20T07:41:50.343Z,48.88
2023-05-20T07:44:19.134Z,48.29
2023-05-20T07:46:48.840Z,47.42
2023-05-20T07:49:15.989Z,47.54
2023-05-20T07:51:43.345Z,46.60
2023-05-20T07:54:12.241Z,46.35
2023-05-20T07:56:39.344Z,46.70
2023-05-20T07:59:07.720Z,46.74
2023-05-20T08:01:41.888Z,46.62
2023-05-20T08:04:09.289Z,46.26
2023-05-20T08:06:37.200Z,46.21
2023-05-20T08:09:04.767Z,45.83
2023-05-20T08:11:33.964Z,45.88
2023-05-20T08:14:02.494Z,45.16
2023-05-20T08:16:31.548Z,44.44
2023-05-20T08:18:59.916Z,43.80
2023-05-20T08:21:27.760Z,43.75
2023-05-20T08:23:55.180Z,43.13
2023-05-20T08:26:22.333Z,43.10
2023-05-20T08:28:50.716Z,42.90
2023-05-20T08:31:19.320Z,43.02
2023-05-20T08:33:46.745Z,42.98
2023-05-20T08:36:14.013Z,43.32
2023-05-20T08:38:41.148Z,42.94
2023-05-20T08:41:08.304Z,42.95
2023-05-20T08:43:36.064Z,42.23
2023-05-20T08:46:05.683Z,42.47
2023-05-20T08:48:35.280Z,42.78
2023-05-20T08:51:03.501Z,43.06
2023-05-20T08:53:30.885Z,42.91
2023-05-20T08:56:02.890Z,43.51
2023-05-20T08:58:30.683Z,42.83
2023-05-20T09:00:59.169Z,42.33
2023-05-20T09:03:26.428Z,41.89
2023-05-20T09:05:54.018Z,42.34
2023-05-20T09:08:26.423Z,42.97
2023-05-20T09:10:54.746Z,42.62
2023-05-20T09:13:23.831Z,42.95
2023-05-20T09:15:51.451Z,41.91
2023-05-20T09:18:18.612Z,41.41
2023-05-20T09:20:47.872Z,41.17
2023-05-20T09:23:14.864Z,41.29
2023-05-20T09:25:42.271Z,42.44
2023-05-20T09:28:09.514Z,42.94
2023-05-20T09:30:36.670Z,41.82
2023-05-20T09:33:05.272Z,41.69
2023-05-20T09:35:35.959Z,40.86
2023-05-20T09:38:03.734Z,41.52
2023-05-20T09:40:30.882Z,41.59
2023-05-20T09:43:02.364Z,42.78
2023-05-20T09:45:30.540Z,42.90
2023-05-20T09:47:58.357Z,43.63
2023-05-20T09:50:25.740Z,43.99
2023-05-20T09:52:53.918Z,42.63
2023-05-20T09:55:22.804Z,41.85
2023-05-20T09:57:49.770Z,40.85
2023-05-20T10:00:20.291Z,41.39
2023-05-20T10:02:52.015Z,41.70
2023-05-20T10:05:24.465Z,41.62
2023-05-20T10:08:09.994Z,41.50
2023-05-20T10:10:40.233Z,41.35
2023-05-20T10:13:19.866Z,41.56
2023-05-20T10:16:32.794Z,42.01
2023-05-20T10:19:30.162Z,42.39
2023-05-20T10:22:08.906Z,41.67
2023-05-20T10:24:43.687Z,42.81
2023-05-20T10:27:12.005Z,42.46
2023-05-20T10:29:58.142Z,41.52
2023-05-20T10:32:30.049Z,41.61
2023-05-20T10:35:05.090Z,41.97
2023-05-20T10:37:42.444Z,42.33
2023-05-20T10:40:11.812Z,42.34
2023-05-20T10:42:39.007Z,41.93
2023-05-20T10:45:07.488Z,41.43
2023-05-20T10:47:35.305Z,41.49
2023-05-20T10:50:05.095Z,40.86
2023-05-20T10:52:38.988Z,41.22
2023-05-20T10:55:07.714Z,40.44
2023-05-20T10:58:05.784Z,39.53
2023-05-20T11:00:36.685Z,38.23
2023-05-20T11:03:06.868Z,38.98
2023-05-20T11:05:34.159Z,39.25
2023-05-20T11:08:13.661Z,38.93
2023-05-20T11:10:47.753Z,38.45
2023-05-20T11:13:17.754Z,39.59
2023-05-20T11:15:45.027Z,39.58
2023-05-20T11:18:14.120Z,38.14
2023-05-20T11:20:42.191Z,37.53
2023-05-20T11:23:13.637Z,37.61
2023-05-20T11:25:40.798Z,38.28
2023-05-20T11:28:14.714Z,38.82
2023-05-20T11:30:43.221Z,38.61
2023-05-20T11:33:12.842Z,38.57
2023-05-20T11:35:51.927Z,39.05
2023-05-20T11:38:19.897Z,38.29
2023-05-20T11:40:51.515Z,38.60
2023-05-20T11:43:19.533Z,38.77
2023-05-20T11:45:48.500Z,39.05
2023-05-20T11:48:16.052Z,38.13
2023-05-20T11:50:43.613Z,38.08
2023-05-20T11:53:12.154Z,38.36
2023-05-20T11:55:49.443Z,38.33
2023-05-20T11:58:23.623Z,38.36
2023-05-20T12:00:56.718Z,38.42
2023-05-20T12:03:26.979Z,37.53
2023-05-20T12:05:54.290Z,37.02
2023-05-20T12:08:23.011Z,37.52
2023-05-20T12:10:51.371Z,37.75
2023-05-20T12:13:19.730Z,37.31
2023-05-20T12:15:46.948Z,37.07
2023-05-20T12:18:14.044Z,37.03
2023-05-20T12:20:41.292Z,38.09
2023-05-20T12:23:08.331Z,37.47
2023-05-20T12:25:35.379Z,37.02
2023-05-20T12:28:02.834Z,36.82
2023-05-20T12:30:29.894Z,36.68
2023-05-20T12:32:57.471Z,37.38
2023-05-20T12:35:39.037Z,37.18
2023-05-20T12:38:07.125Z,35.22
2023-05-20T12:40:34.831Z,35.68
2023-05-20T12:43:02.969Z,35.84
2023-05-20T12:45:29.984Z,35.83
2023-05-20T12:47:57.741Z,35.80
2023-05-20T12:50:25.106Z,36.89
2023-05-20T12:52:52.371Z,37.02
2023-05-20T12:55:19.617Z,36.94
2023-05-20T12:57:48.098Z,37.55
2023-05-20T13:00:15.847Z,37.36
2023-05-20T13:02:43.640Z,36.34
2023-05-20T13:05:12.980Z,36.49
2023-05-20T13:07:40.540Z,35.83
2023-05-20T13:10:08.628Z,36.01
2023-05-20T13:12:36.193Z,35.63
2023-05-20T13:15:04.645Z,34.91
2023-05-20T13:17:32.287Z,34.97
2023-05-20T13:20:22.475Z,35.53
2023-05-20T13:22:50.760Z,35.75
2023-05-20T13:25:18.060Z,35.45
2023-05-20T13:38:56.897Z,34.10
2023-05-20T13:53:12.899Z,33.89
2023-05-20T13:55:40.867Z,33.31
2023-05-20T13:58:10.918Z,33.87
2023-05-20T14:00:38.546Z,34.18
2023-05-20T14:03:05.747Z,33.66
2023-05-20T14:05:44.155Z,32.47
2023-05-20T14:08:11.287Z,32.24
2023-05-20T14:10:38.343Z,32.88
2023-05-20T14:13:06.795Z,32.65
2023-05-20T14:15:36.604Z,32.54
2023-05-20T14:18:04.127Z,32.91
2023-05-20T14:20:33.899Z,33.40
2023-05-20T14:23:02.519Z,32.73
2023-05-20T14:25:29.844Z,33.05
2023-05-20T14:27:57.096Z,33.39
2023-05-20T14:30:25.225Z,33.52
2023-05-20T14:32:52.361Z,32.80
2023-05-20T14:35:19.780Z,32.38
2023-05-20T14:37:47.036Z,32.22
2023-05-20T14:40:14.673Z,32.61
2023-05-20T14:42:42.148Z,32.81
2023-05-20T14:45:10.214Z,33.09
2023-05-20T14:47:40.365Z,32.39
2023-05-20T14:50:08.120Z,31.91
2023-05-20T14:52:35.365Z,31.43
2023-05-20T14:55:02.505Z,32.07
2023-05-20T14:57:29.564Z,32.98
2023-05-20T14:59:57.019Z,33.49
2023-05-20T15:02:24.350Z,33.07
2023-05-20T15:04:51.728Z,32.49
2023-05-20T15:07:18.899Z,33.16
2023-05-20T15:09:46.155Z,33.45
2023-05-20T15:12:13.481Z,32.43
2023-05-20T15:14:40.526Z,32.79
2023-05-20T15:17:08.073Z,32.71
2023-05-20T15:19:37.390Z,31.96
2023-05-20T15:22:06.077Z,32.54
2023-05-20T15:24:33.638Z,33.72
2023-05-20T15:27:01.096Z,34.10
2023-05-20T15:29:28.356Z,34.12
2023-05-20T15:32:00.562Z,33.91
2023-05-20T15:34:30.087Z,34.37
2023-05-20T15:36:58.516Z,33.59
2023-05-20T15:39:26.442Z,33.27
2023-05-20T15:41:54.071Z,32.88
2023-05-20T15:44:21.028Z,34.01
2023-05-20T15:46:48.161Z,34.78
2023-05-20T15:49:15.353Z,34.90
2023-05-20T15:51:46.626Z,35.39
2023-05-20T15:54:22.701Z,36.15
2023-05-20T15:56:49.841Z,36.80
2023-05-20T15:59:17.098Z,37.13
2023-05-20T16:01:44.200Z,36.70
2023-05-20T16:04:11.656Z,36.22
2023-05-20T16:06:39.189Z,35.57
2023-05-20T16:09:07.438Z,34.74
2023-05-20T16:11:34.484Z,33.88
2023-05-20T16:14:01.590Z,33.38
2023-05-20T16:16:28.763Z,33.56
2023-05-20T16:18:56.499Z,33.30
2023-05-20T16:21:25.441Z,32.95
2023-05-20T16:23:53.309Z,33.01
2023-05-20T16:26:21.312Z,33.19
2023-05-20T16:28:48.599Z,34.06
2023-05-20T16:31:16.019Z,35.02
2023-05-20T16:33:43.258Z,36.13
2023-05-20T16:36:12.419Z,37.22
2023-05-20T16:38:39.684Z,38.57
2023-05-20T16:41:07.041Z,38.81
2023-05-20T16:43:34.099Z,39.22
2023-05-20T16:46:01.621Z,39.21
2023-05-20T16:48:28.806Z,39.83
2023-05-20T16:50:55.955Z,40.30
2023-05-20T16:53:23.472Z,40.69
2023-05-20T16:55:52.206Z,41.25
2023-05-20T16:58:23.304Z,41.81
2023-05-20T17:00:53.331Z,42.56
2023-05-20T17:03:21.740Z,42.75
2023-05-20T17:05:49.105Z,42.80
2023-05-20T17:08:16.724Z,43.38
2023-05-20T17:10:43.764Z,43.84
2023-05-20T17:13:10.819Z,44.35
2023-05-20T17:15:37.903Z,45.14
2023-05-20T17:18:04.984Z,45.91
2023-05-20T17:20:32.655Z,46.39
2023-05-20T17:23:00.298Z,46.92
2023-05-20T17:25:27.766Z,47.74
2023-05-20T17:27:54.890Z,48.27
2023-05-20T17:30:22.649Z,48.63
2023-05-20T17:32:51.158Z,49.35
2023-05-20T17:35:21.037Z,49.72
2023-05-20T17:37:50.244Z,50.23
2023-05-20T17:40:17.492Z,50.61
2023-05-20T17:42:44.538Z,50.93
2023-05-20T17:45:12.108Z,51.46
2023-05-20T17:47:39.428Z,51.84
2023-05-20T17:50:16.032Z,51.98
2023-05-20T17:52:43.171Z,51.93
2023-05-20T17:55:10.241Z,52.03
2023-05-20T17:57:40.304Z,52.04
2023-05-20T18:00:09.552Z,52.05
2023-05-20T18:02:38.814Z,52.09
2023-05-20T18:05:08.175Z,52.20
2023-05-20T18:07:37.942Z,52.36
2023-05-20T18:10:06.238Z,52.35
2023-05-20T18:12:34.104Z,52.63
2023-05-20T18:17:22.194Z,52.98
2023-05-20T18:19:49.311Z,52.92
2023-05-20T18:22:16.392Z,52.79
2023-05-20T18:24:43.504Z,52.76
2023-05-20T18:27:10.748Z,52.53
2023-05-20T18:29:37.928Z,52.46
2023-05-20T18:32:07.967Z,52.43
2023-05-20T18:34:38.110Z,52.44
2023-05-20T18:37:08.304Z,52.70
2023-05-20T18:39:35.324Z,52.79
2023-05-20T18:42:02.623Z,52.92
2023-05-20T18:44:31.730Z,53.36
2023-05-20T18:46:58.852Z,53.75
2023-05-20T18:49:25.901Z,54.42
2023-05-20T18:51:53.456Z,54.67
2023-05-20T18:54:20.507Z,55.17
2023-05-20T18:56:48.790Z,55.62
2023-05-20T18:59:16.445Z,56.23
2023-05-20T19:01:43.537Z,56.60
2023-05-20T19:04:10.669Z,56.95
2023-05-20T19:06:38.301Z,57.49
2023-05-20T19:09:05.465Z,57.68
2023-05-20T19:11:32.607Z,57.86
2023-05-20T19:14:01.802Z,58.11
2023-05-20T19:16:29.415Z,58.10
2023-05-20T19:18:56.654Z,58.07
2023-05-20T19:21:23.702Z,57.91
2023-05-20T19:23:50.794Z,57.82
2023-05-20T19:26:18.315Z,57.73
2023-05-20T19:28:49.953Z,57.41
2023-05-20T19:31:26.125Z,57.53
2023-05-20T19:33:53.320Z,57.72
2023-05-20T19:36:20.376Z,58.29
2023-05-20T19:38:48.150Z,58.75
2023-05-20T19:41:15.427Z,59.02
2023-05-20T19:43:42.540Z,59.47
2023-05-20T19:46:09.621Z,59.68
2023-05-20T19:48:36.898Z,59.93
2023-05-20T19:51:04.242Z,59.70
2023-05-20T19:53:31.525Z,59.34
2023-05-20T19:55:58.662Z,59.13
2023-05-20T19:58:25.812Z,58.86
2023-05-20T20:00:52.717Z,58.57
2023-05-20T20:03:19.808Z,58.28
2023-05-20T20:05:46.842Z,58.23
2023-05-20T20:08:14.004Z,58.27
2023-05-20T20:10:41.044Z,58.12
2023-05-20T20:13:08.141Z,58.22
2023-05-20T20:15:35.347Z,58.20
2023-05-20T20:18:03.148Z,58.04
2023-05-20T20:20:30.420Z,58.19
2023-05-20T20:22:57.810Z,58.03
2023-05-20T20:25:27.001Z,57.93
2023-05-20T20:27:54.156Z,57.87
2023-05-20T20:30:22.027Z,57.82
2023-05-20T20:32:49.262Z,58.01
2023-05-20T20:35:17.495Z,58.09
2023-05-20T20:37:45.059Z,58.33
2023-05-20T20:40:13.845Z,58.45
2023-05-20T20:42:42.126Z,58.35
2023-05-20T20:45:10.292Z,58.26
2023-05-20T20:47:38.904Z,58.44
2023-05-20T20:50:08.165Z,58.56
2023-05-20T20:52:35.203Z,58.60
2023-05-20T20:55:02.768Z,58.63
2023-05-20T20:57:32.359Z,58.84
2023-05-20T20:59:59.613Z,59.24
2023-05-20T21:02:26.689Z,59.43
2023-05-20T21:04:53.724Z,59.85
2023-05-20T21:07:20.758Z,59.91
2023-05-20T21:09:47.911Z,59.75
2023-05-20T21:12:15.569Z,59.59
2023-05-20T21:14:44.521Z,59.50
2023-05-20T21:17:11.798Z,59.29
2023-05-20T21:19:39.124Z,59.21
2023-05-20T21:22:06.280Z,59.02
2023-05-20T21:24:33.358Z,58.36
2023-05-20T21:27:01.117Z,58.37
2023-05-20T21:29:28.298Z,58.40
2023-05-20T21:31:55.589Z,58.85
2023-05-20T21:34:22.616Z,59.13
2023-05-20T21:36:49.828Z,59.22
2023-05-20T21:39:16.867Z,59.53
2023-05-20T21:41:44.020Z,59.69
2023-05-20T21:44:11.067Z,59.75
2023-05-20T21:46:38.251Z,59.39
2023-05-20T21:49:05.684Z,59.53
2023-05-20T21:51:32.825Z,59.61
2023-05-20T21:53:59.936Z,59.88
2023-05-20T21:56:27.125Z,60.04
2023-05-20T21:58:54.173Z,60.74
2023-05-20T22:01:21.887Z,60.90
2023-05-20T22:03:53.697Z,60.74
2023-05-20T22:06:21.771Z,60.30
2023-05-20T22:08:49.435Z,60.12
2023-05-20T22:11:16.584Z,60.27
2023-05-20T22:13:44.524Z,60.07
2023-05-20T22:16:12.233Z,60.44
2023-05-20T22:18:40.102Z,61.14
2023-05-20T22:21:07.135Z,60.96
2023-05-20T22:23:34.245Z,60.82
2023-05-20T22:26:01.913Z,60.56
2023-05-20T22:28:29.044Z,60.74
2023-05-20T22:30:56.519Z,60.74
2023-05-20T22:33:24.579Z,61.22
2023-05-20T22:35:51.727Z,60.62
2023-05-20T22:38:18.874Z,60.25
2023-05-20T22:40:46.103Z,60.50
2023-05-20T22:43:13.333Z,60.25
2023-05-20T22:45:40.772Z,59.51
2023-05-20T22:48:08.273Z,60.01
2023-05-20T22:50:35.772Z,60.22
2023-05-20T22:53:03.412Z,60.65
2023-05-20T22:55:30.464Z,61.04
2023-05-20T22:57:58.208Z,60.42
2023-05-20T23:00:25.553Z,60.31
2023-05-20T23:02:53.054Z,60.40
2023-05-20T23:05:20.254Z,60.66
2023-05-20T23:07:47.705Z,61.18
2023-05-20T23:10:14.933Z,61.40
2023-05-20T23:12:41.981Z,61.40
2023-05-20T23:15:10.053Z,61.50
2023-05-20T23:17:37.682Z,61.85
2023-05-20T23:20:11.227Z,62.11
2023-05-20T23:22:38.525Z,62.38
2023-05-20T23:25:05.986Z,62.25
2023-05-20T23:27:33.244Z,62.45
2023-05-20T23:30:00.354Z,62.53
2023-05-20T23:32:27.438Z,62.90
2023-05-20T23:34:55.533Z,62.94
2023-05-20T23:37:22.665Z,62.96
2023-05-20T23:39:49.768Z,63.11
2023-05-20T23:42:17.121Z,63.28
2023-05-20T23:44:44.180Z,63.62
2023-05-20T23:47:13.718Z,63.93
2023-05-20T23:49:41.954Z,64.17
2023-05-20T23:52:09.057Z,64.14
2023-05-20T23:54:36.100Z,63.88
2023-05-20T23:57:03.149Z,63.79
2023-05-20T23:59:30.191Z,63.68
